sensor_id;sensor_type;location;lat;lon;timestamp;temperature;humidity
7800;DHT22;3944;47.984;7.960;2022-08-21T00:00:06;14.90;99.90
7800;DHT22;3944;47.984;7.960;2022-08-21T00:02:34;14.80;99.90
7800;DHT22;3944;47.984;7.960;2022-08-21T00:05:02;14.80;99.90
7800;DHT22;3944;47.984;7.960;2022-08-21T00:07:29;15.00;99.90
7800;DHT22;3944;47.984;7.960;2022-08-21T00:09:57;15.00;99.90
7800;DHT22;3944;47.984;7.960;2022-08-21T00:12:25;15.00;99.90
7800;DHT22;3944;47.984;7.960;2022-08-21T00:14:53;14.90;99.90
7800;DHT22;3944;47.984;7.960;2022-08-21T00:17:20;14.90;99.90
7800;DHT22;3944;47.984;7.960;2022-08-21T00:19:48;14.90;99.90
7800;DHT22;3944;47.984;7.960;2022-08-21T00:22:14;14.80;99.90
7800;DHT22;3944;47.984;7.960;2022-08-21T00:24:41;14.70;99.90
7800;DHT22;3944;47.984;7.960;2022-08-21T00:27:08;14.80;99.90
7800;DHT22;3944;47.984;7.960;2022-08-21T00:29:36;14.70;99.90
7800;DHT22;3944;47.984;7.960;2022-08-21T00:32:04;14.70;99.90
7800;DHT22;3944;47.984;7.960;2022-08-21T00:34:31;14.70;99.90
7800;DHT22;3944;47.984;7.960;2022-08-21T00:36:58;14.70;99.90
7800;DHT22;3944;47.984;7.960;2022-08-21T00:39:25;14.60;99.90
7800;DHT22;3944;47.984;7.960;2022-08-21T00:41:52;14.60;99.90
7800;DHT22;3944;47.984;7.960;2022-08-21T00:44:19;14.70;99.90
7800;DHT22;3944;47.984;7.960;2022-08-21T00:46:47;14.80;99.90
7800;DHT22;3944;47.984;7.960;2022-08-21T00:49:14;14.70;99.90
7800;DHT22;3944;47.984;7.960;2022-08-21T00:51:45;14.70;99.90
7800;DHT22;3944;47.984;7.960;2022-08-21T00:54:17;14.70;99.90
7800;DHT22;3944;47.984;7.960;2022-08-21T00:56:46;14.80;99.90
7800;DHT22;3944;47.984;7.960;2022-08-21T00:59:16;14.70;99.90
7800;DHT22;3944;47.984;7.960;2022-08-21T01:01:47;14.70;99.90
7800;DHT22;3944;47.984;7.960;2022-08-21T01:04:15;14.70;99.90
7800;DHT22;3944;47.984;7.960;2022-08-21T01:06:42;14.60;99.90
7800;DHT22;3944;47.984;7.960;2022-08-21T01:09:09;14.60;99.90
7800;DHT22;3944;47.984;7.960;2022-08-21T01:11:36;14.60;99.90
7800;DHT22;3944;47.984;7.960;2022-08-21T01:14:03;14.50;99.90
7800;DHT22;3944;47.984;7.960;2022-08-21T01:16:31;14.50;99.90
7800;DHT22;3944;47.984;7.960;2022-08-21T01:19:06;14.50;99.90
7800;DHT22;3944;47.984;7.960;2022-08-21T01:21:36;14.40;99.90
7800;DHT22;3944;47.984;7.960;2022-08-21T01:24:03;14.40;99.90
7800;DHT22;3944;47.984;7.960;2022-08-21T01:26:32;14.50;99.90
7800;DHT22;3944;47.984;7.960;2022-08-21T01:29:05;14.30;99.90
7800;DHT22;3944;47.984;7.960;2022-08-21T01:31:33;14.30;99.90
7800;DHT22;3944;47.984;7.960;2022-08-21T01:34:00;14.40;99.90
7800;DHT22;3944;47.984;7.960;2022-08-21T01:36:27;14.50;99.90
7800;DHT22;3944;47.984;7.960;2022-08-21T01:38:56;14.40;99.90
7800;DHT22;3944;47.984;7.960;2022-08-21T01:41:23;14.40;99.90
7800;DHT22;3944;47.984;7.960;2022-08-21T01:43:50;14.40;99.90
7800;DHT22;3944;47.984;7.960;2022-08-21T01:46:17;14.30;99.90
7800;DHT22;3944;47.984;7.960;2022-08-21T01:48:44;14.30;99.90
7800;DHT22;3944;47.984;7.960;2022-08-21T01:51:11;14.20;99.90
7800;DHT22;3944;47.984;7.960;2022-08-21T01:53:38;14.20;99.90
7800;DHT22;3944;47.984;7.960;2022-08-21T01:56:11;14.20;99.90
7800;DHT22;3944;47.984;7.960;2022-08-21T01:58:38;14.30;99.90
7800;DHT22;3944;47.984;7.960;2022-08-21T02:01:05;14.30;99.90
7800;DHT22;3944;47.984;7.960;2022-08-21T02:03:32;14.30;99.90
7800;DHT22;3944;47.984;7.960;2022-08-21T02:05:59;14.30;99.90
7800;DHT22;3944;47.984;7.960;2022-08-21T02:08:27;14.20;99.90
7800;DHT22;3944;47.984;7.960;2022-08-21T02:10:54;14.20;99.90
7800;DHT22;3944;47.984;7.960;2022-08-21T02:13:23;14.10;99.90
7800;DHT22;3944;47.984;7.960;2022-08-21T02:15:50;14.20;99.90
7800;DHT22;3944;47.984;7.960;2022-08-21T02:18:17;14.10;99.90
7800;DHT22;3944;47.984;7.960;2022-08-21T02:20:46;14.00;99.90
7800;DHT22;3944;47.984;7.960;2022-08-21T02:23:14;14.00;99.90
7800;DHT22;3944;47.984;7.960;2022-08-21T02:25:41;14.20;99.90
7800;DHT22;3944;47.984;7.960;2022-08-21T02:28:10;14.20;99.90
7800;DHT22;3944;47.984;7.960;2022-08-21T02:30:41;14.20;99.90
7800;DHT22;3944;47.984;7.960;2022-08-21T02:33:10;14.10;99.90
7800;DHT22;3944;47.984;7.960;2022-08-21T02:35:38;14.20;99.90
7800;DHT22;3944;47.984;7.960;2022-08-21T02:38:11;14.10;99.90
7800;DHT22;3944;47.984;7.960;2022-08-21T02:40:40;14.10;99.90
7800;DHT22;3944;47.984;7.960;2022-08-21T02:43:07;14.10;99.90
7800;DHT22;3944;47.984;7.960;2022-08-21T02:45:36;14.10;99.90
7800;DHT22;3944;47.984;7.960;2022-08-21T02:48:06;14.00;99.90
7800;DHT22;3944;47.984;7.960;2022-08-21T02:50:36;13.90;99.90
7800;DHT22;3944;47.984;7.960;2022-08-21T02:53:03;14.00;99.90
7800;DHT22;3944;47.984;7.960;2022-08-21T02:55:31;13.90;99.90
7800;DHT22;3944;47.984;7.960;2022-08-21T02:58:00;13.70;99.90
7800;DHT22;3944;47.984;7.960;2022-08-21T03:00:29;13.60;99.90
7800;DHT22;3944;47.984;7.960;2022-08-21T03:02:57;13.70;99.90
7800;DHT22;3944;47.984;7.960;2022-08-21T03:05:26;13.60;99.90
7800;DHT22;3944;47.984;7.960;2022-08-21T03:07:56;13.60;99.90
7800;DHT22;3944;47.984;7.960;2022-08-21T03:10:24;13.70;99.90
7800;DHT22;3944;47.984;7.960;2022-08-21T03:12:51;13.70;99.90
7800;DHT22;3944;47.984;7.960;2022-08-21T03:15:20;13.60;99.90
7800;DHT22;3944;47.984;7.960;2022-08-21T03:17:49;13.50;99.90
7800;DHT22;3944;47.984;7.960;2022-08-21T03:20:19;13.50;99.90
7800;DHT22;3944;47.984;7.960;2022-08-21T03:22:49;13.50;99.90
7800;DHT22;3944;47.984;7.960;2022-08-21T03:25:16;13.60;99.90
7800;DHT22;3944;47.984;7.960;2022-08-21T03:27:43;13.60;99.90
7800;DHT22;3944;47.984;7.960;2022-08-21T03:30:11;13.70;99.90
7800;DHT22;3944;47.984;7.960;2022-08-21T03:32:38;13.50;99.90
7800;DHT22;3944;47.984;7.960;2022-08-21T03:35:07;13.50;99.90
7800;DHT22;3944;47.984;7.960;2022-08-21T03:37:35;13.40;99.90
7800;DHT22;3944;47.984;7.960;2022-08-21T03:40:04;13.40;99.90
7800;DHT22;3944;47.984;7.960;2022-08-21T03:42:31;13.20;99.90
7800;DHT22;3944;47.984;7.960;2022-08-21T03:44:58;13.20;99.90
7800;DHT22;3944;47.984;7.960;2022-08-21T03:47:25;13.40;99.90
7800;DHT22;3944;47.984;7.960;2022-08-21T03:49:52;13.40;99.90
7800;DHT22;3944;47.984;7.960;2022-08-21T03:52:19;13.30;99.90
7800;DHT22;3944;47.984;7.960;2022-08-21T03:54:46;13.40;99.90
7800;DHT22;3944;47.984;7.960;2022-08-21T03:57:14;13.30;99.90
7800;DHT22;3944;47.984;7.960;2022-08-21T03:59:42;13.20;99.90
7800;DHT22;3944;47.984;7.960;2022-08-21T04:02:10;13.20;99.90
7800;DHT22;3944;47.984;7.960;2022-08-21T04:04:39;13.10;99.90
7800;DHT22;3944;47.984;7.960;2022-08-21T04:07:06;13.20;99.90
7800;DHT22;3944;47.984;7.960;2022-08-21T04:09:33;13.10;99.90
7800;DHT22;3944;47.984;7.960;2022-08-21T04:12:00;13.10;99.90
7800;DHT22;3944;47.984;7.960;2022-08-21T04:14:29;13.10;99.90
7800;DHT22;3944;47.984;7.960;2022-08-21T04:16:55;13.00;99.90
7800;DHT22;3944;47.984;7.960;2022-08-21T04:19:22;13.10;99.90
7800;DHT22;3944;47.984;7.960;2022-08-21T04:21:49;13.30;99.90
7800;DHT22;3944;47.984;7.960;2022-08-21T04:24:16;13.30;99.90
7800;DHT22;3944;47.984;7.960;2022-08-21T04:26:44;13.30;99.90
7800;DHT22;3944;47.984;7.960;2022-08-21T04:29:11;13.30;99.90
7800;DHT22;3944;47.984;7.960;2022-08-21T04:31:39;13.30;99.90
7800;DHT22;3944;47.984;7.960;2022-08-21T04:34:06;13.30;99.90
7800;DHT22;3944;47.984;7.960;2022-08-21T04:36:33;13.20;99.90
7800;DHT22;3944;47.984;7.960;2022-08-21T04:39:01;13.30;99.90
7800;DHT22;3944;47.984;7.960;2022-08-21T04:41:28;13.10;99.90
7800;DHT22;3944;47.984;7.960;2022-08-21T04:43:55;13.10;99.90
7800;DHT22;3944;47.984;7.960;2022-08-21T04:46:22;13.00;99.90
7800;DHT22;3944;47.984;7.960;2022-08-21T04:48:50;12.80;99.90
7800;DHT22;3944;47.984;7.960;2022-08-21T04:51:20;12.90;99.90
7800;DHT22;3944;47.984;7.960;2022-08-21T04:53:50;13.10;99.90
7800;DHT22;3944;47.984;7.960;2022-08-21T04:56:21;13.40;99.90
7800;DHT22;3944;47.984;7.960;2022-08-21T04:58:50;13.30;99.90
7800;DHT22;3944;47.984;7.960;2022-08-21T05:01:20;13.20;99.90
7800;DHT22;3944;47.984;7.960;2022-08-21T05:03:50;13.10;99.90
7800;DHT22;3944;47.984;7.960;2022-08-21T05:06:19;13.00;99.90
7800;DHT22;3944;47.984;7.960;2022-08-21T05:08:47;13.30;99.90
7800;DHT22;3944;47.984;7.960;2022-08-21T05:11:15;13.40;99.90
7800;DHT22;3944;47.984;7.960;2022-08-21T05:13:42;13.50;99.90
7800;DHT22;3944;47.984;7.960;2022-08-21T05:16:09;13.70;99.90
7800;DHT22;3944;47.984;7.960;2022-08-21T05:18:36;13.70;99.90
7800;DHT22;3944;47.984;7.960;2022-08-21T05:21:04;13.90;99.90
7800;DHT22;3944;47.984;7.960;2022-08-21T05:23:31;13.90;99.90
7800;DHT22;3944;47.984;7.960;2022-08-21T05:25:58;13.80;99.90
7800;DHT22;3944;47.984;7.960;2022-08-21T05:28:25;13.80;99.90
7800;DHT22;3944;47.984;7.960;2022-08-21T05:30:52;13.70;99.90
7800;DHT22;3944;47.984;7.960;2022-08-21T05:33:19;13.90;99.90
7800;DHT22;3944;47.984;7.960;2022-08-21T05:35:49;14.00;99.90
7800;DHT22;3944;47.984;7.960;2022-08-21T05:38:18;14.20;99.90
7800;DHT22;3944;47.984;7.960;2022-08-21T05:40:45;14.00;99.90
7800;DHT22;3944;47.984;7.960;2022-08-21T05:43:12;14.00;99.90
7800;DHT22;3944;47.984;7.960;2022-08-21T05:45:40;14.00;99.90
7800;DHT22;3944;47.984;7.960;2022-08-21T05:48:10;14.30;99.90
7800;DHT22;3944;47.984;7.960;2022-08-21T05:50:37;14.40;99.90
7800;DHT22;3944;47.984;7.960;2022-08-21T05:53:04;14.40;99.90
7800;DHT22;3944;47.984;7.960;2022-08-21T05:55:33;14.30;99.90
7800;DHT22;3944;47.984;7.960;2022-08-21T05:58:00;14.50;99.90
7800;DHT22;3944;47.984;7.960;2022-08-21T06:00:27;14.60;99.90
7800;DHT22;3944;47.984;7.960;2022-08-21T06:02:53;14.60;99.90
7800;DHT22;3944;47.984;7.960;2022-08-21T06:05:20;14.90;99.90
7800;DHT22;3944;47.984;7.960;2022-08-21T06:07:47;15.20;99.90
7800;DHT22;3944;47.984;7.960;2022-08-21T06:10:14;15.20;99.90
7800;DHT22;3944;47.984;7.960;2022-08-21T06:12:43;15.20;99.90
7800;DHT22;3944;47.984;7.960;2022-08-21T06:15:10;15.40;99.90
7800;DHT22;3944;47.984;7.960;2022-08-21T06:17:36;15.40;99.90
7800;DHT22;3944;47.984;7.960;2022-08-21T06:20:04;15.50;99.90
7800;DHT22;3944;47.984;7.960;2022-08-21T06:22:31;15.40;99.90
7800;DHT22;3944;47.984;7.960;2022-08-21T06:24:58;15.40;99.90
7800;DHT22;3944;47.984;7.960;2022-08-21T06:27:24;15.50;99.90
7800;DHT22;3944;47.984;7.960;2022-08-21T06:29:53;15.70;99.90
7800;DHT22;3944;47.984;7.960;2022-08-21T06:32:21;15.80;99.90
7800;DHT22;3944;47.984;7.960;2022-08-21T06:34:48;15.80;99.90
7800;DHT22;3944;47.984;7.960;2022-08-21T06:37:15;15.90;99.90
7800;DHT22;3944;47.984;7.960;2022-08-21T06:39:42;15.90;99.90
7800;DHT22;3944;47.984;7.960;2022-08-21T06:42:13;15.90;99.90
7800;DHT22;3944;47.984;7.960;2022-08-21T06:44:40;15.90;99.90
7800;DHT22;3944;47.984;7.960;2022-08-21T06:47:08;15.80;99.90
7800;DHT22;3944;47.984;7.960;2022-08-21T06:49:36;15.90;99.90
7800;DHT22;3944;47.984;7.960;2022-08-21T06:52:03;16.10;99.90
7800;DHT22;3944;47.984;7.960;2022-08-21T06:54:30;16.20;99.90
7800;DHT22;3944;47.984;7.960;2022-08-21T06:56:58;16.20;99.90
7800;DHT22;3944;47.984;7.960;2022-08-21T06:59:25;16.30;99.90
7800;DHT22;3944;47.984;7.960;2022-08-21T07:01:52;16.30;99.90
7800;DHT22;3944;47.984;7.960;2022-08-21T07:04:20;16.40;99.90
7800;DHT22;3944;47.984;7.960;2022-08-21T07:06:47;16.50;99.90
7800;DHT22;3944;47.984;7.960;2022-08-21T07:09:14;16.70;99.90
7800;DHT22;3944;47.984;7.960;2022-08-21T07:11:40;16.70;99.90
7800;DHT22;3944;47.984;7.960;2022-08-21T07:14:07;16.70;99.90
7800;DHT22;3944;47.984;7.960;2022-08-21T07:16:34;16.70;99.90
7800;DHT22;3944;47.984;7.960;2022-08-21T07:19:01;16.90;99.90
7800;DHT22;3944;47.984;7.960;2022-08-21T07:21:30;16.90;99.90
7800;DHT22;3944;47.984;7.960;2022-08-21T07:23:56;16.90;99.90
7800;DHT22;3944;47.984;7.960;2022-08-21T07:26:24;17.00;99.90
7800;DHT22;3944;47.984;7.960;2022-08-21T07:28:51;17.10;99.90
7800;DHT22;3944;47.984;7.960;2022-08-21T07:31:20;17.20;99.90
7800;DHT22;3944;47.984;7.960;2022-08-21T07:33:48;17.30;99.90
7800;DHT22;3944;47.984;7.960;2022-08-21T07:36:14;17.40;99.90
7800;DHT22;3944;47.984;7.960;2022-08-21T07:38:43;17.50;99.90
7800;DHT22;3944;47.984;7.960;2022-08-21T07:41:17;17.70;99.90
7800;DHT22;3944;47.984;7.960;2022-08-21T07:43:45;18.00;99.90
7800;DHT22;3944;47.984;7.960;2022-08-21T07:46:12;17.80;99.90
7800;DHT22;3944;47.984;7.960;2022-08-21T07:48:40;17.80;99.90
7800;DHT22;3944;47.984;7.960;2022-08-21T07:51:13;17.90;99.90
7800;DHT22;3944;47.984;7.960;2022-08-21T07:53:40;17.80;99.90
7800;DHT22;3944;47.984;7.960;2022-08-21T07:56:08;17.90;99.90
7800;DHT22;3944;47.984;7.960;2022-08-21T07:58:36;17.90;99.90
7800;DHT22;3944;47.984;7.960;2022-08-21T08:01:04;18.00;99.90
7800;DHT22;3944;47.984;7.960;2022-08-21T08:03:31;18.00;99.90
7800;DHT22;3944;47.984;7.960;2022-08-21T08:05:58;18.00;99.90
7800;DHT22;3944;47.984;7.960;2022-08-21T08:08:25;17.90;99.90
7800;DHT22;3944;47.984;7.960;2022-08-21T08:10:53;18.00;99.90
7800;DHT22;3944;47.984;7.960;2022-08-21T08:13:21;18.00;99.90
7800;DHT22;3944;47.984;7.960;2022-08-21T08:15:48;18.10;99.90
7800;DHT22;3944;47.984;7.960;2022-08-21T08:18:15;18.10;99.90
7800;DHT22;3944;47.984;7.960;2022-08-21T08:20:42;18.20;99.90
7800;DHT22;3944;47.984;7.960;2022-08-21T08:23:10;18.20;99.90
7800;DHT22;3944;47.984;7.960;2022-08-21T08:25:37;18.10;99.90
7800;DHT22;3944;47.984;7.960;2022-08-21T08:28:05;18.30;99.90
7800;DHT22;3944;47.984;7.960;2022-08-21T08:30:33;18.30;99.90
7800;DHT22;3944;47.984;7.960;2022-08-21T08:33:00;18.30;99.90
7800;DHT22;3944;47.984;7.960;2022-08-21T08:35:27;18.20;99.90
7800;DHT22;3944;47.984;7.960;2022-08-21T08:37:54;18.30;99.90
7800;DHT22;3944;47.984;7.960;2022-08-21T08:43:07;18.40;99.90
7800;DHT22;3944;47.984;7.960;2022-08-21T08:45:37;18.30;99.90
7800;DHT22;3944;47.984;7.960;2022-08-21T08:48:08;18.30;99.90
7800;DHT22;3944;47.984;7.960;2022-08-21T08:50:40;18.40;99.90
7800;DHT22;3944;47.984;7.960;2022-08-21T08:53:12;18.60;99.90
7800;DHT22;3944;47.984;7.960;2022-08-21T08:55:44;18.60;99.90
7800;DHT22;3944;47.984;7.960;2022-08-21T08:58:16;18.90;99.90
7800;DHT22;3944;47.984;7.960;2022-08-21T09:00:50;19.00;99.90
7800;DHT22;3944;47.984;7.960;2022-08-21T09:03:17;18.90;99.90
7800;DHT22;3944;47.984;7.960;2022-08-21T09:05:46;18.90;99.90
7800;DHT22;3944;47.984;7.960;2022-08-21T09:08:24;19.00;99.90
7800;DHT22;3944;47.984;7.960;2022-08-21T09:10:58;19.10;99.90
7800;DHT22;3944;47.984;7.960;2022-08-21T09:13:33;19.10;99.90
7800;DHT22;3944;47.984;7.960;2022-08-21T09:16:11;19.30;99.90
7800;DHT22;3944;47.984;7.960;2022-08-21T09:18:46;19.30;99.90
7800;DHT22;3944;47.984;7.960;2022-08-21T09:21:20;19.40;99.90
7800;DHT22;3944;47.984;7.960;2022-08-21T09:23:57;19.60;99.90
7800;DHT22;3944;47.984;7.960;2022-08-21T09:26:29;19.70;99.90
7800;DHT22;3944;47.984;7.960;2022-08-21T09:28:59;19.90;99.90
7800;DHT22;3944;47.984;7.960;2022-08-21T09:31:31;19.90;99.90
7800;DHT22;3944;47.984;7.960;2022-08-21T09:34:00;19.80;99.90
7800;DHT22;3944;47.984;7.960;2022-08-21T09:36:34;20.00;99.90
7800;DHT22;3944;47.984;7.960;2022-08-21T09:39:03;20.20;99.90
7800;DHT22;3944;47.984;7.960;2022-08-21T09:41:32;20.30;99.90
7800;DHT22;3944;47.984;7.960;2022-08-21T09:44:01;20.10;99.90
7800;DHT22;3944;47.984;7.960;2022-08-21T09:46:29;20.20;99.90
7800;DHT22;3944;47.984;7.960;2022-08-21T09:49:00;20.10;99.90
7800;DHT22;3944;47.984;7.960;2022-08-21T09:51:29;20.00;99.90
7800;DHT22;3944;47.984;7.960;2022-08-21T09:54:10;20.40;99.90
7800;DHT22;3944;47.984;7.960;2022-08-21T09:56:40;20.50;99.90
7800;DHT22;3944;47.984;7.960;2022-08-21T09:59:36;20.50;99.90
7800;DHT22;3944;47.984;7.960;2022-08-21T10:02:22;20.50;99.90
7800;DHT22;3944;47.984;7.960;2022-08-21T10:04:50;20.40;99.90
7800;DHT22;3944;47.984;7.960;2022-08-21T10:07:21;20.60;99.90
7800;DHT22;3944;47.984;7.960;2022-08-21T10:10:00;20.60;99.90
7800;DHT22;3944;47.984;7.960;2022-08-21T10:12:35;20.60;99.90
7800;DHT22;3944;47.984;7.960;2022-08-21T10:15:10;20.60;99.90
7800;DHT22;3944;47.984;7.960;2022-08-21T10:17:48;20.80;99.90
7800;DHT22;3944;47.984;7.960;2022-08-21T10:20:23;20.80;99.90
7800;DHT22;3944;47.984;7.960;2022-08-21T10:23:02;20.90;99.90
7800;DHT22;3944;47.984;7.960;2022-08-21T10:25:32;21.20;99.90
7800;DHT22;3944;47.984;7.960;2022-08-21T10:28:09;21.20;99.90
7800;DHT22;3944;47.984;7.960;2022-08-21T10:30:42;21.10;99.90
7800;DHT22;3944;47.984;7.960;2022-08-21T10:33:23;21.00;99.90
7800;DHT22;3944;47.984;7.960;2022-08-21T10:35:59;21.00;99.90
7800;DHT22;3944;47.984;7.960;2022-08-21T10:38:46;21.20;99.90
7800;DHT22;3944;47.984;7.960;2022-08-21T10:41:21;21.10;99.90
7800;DHT22;3944;47.984;7.960;2022-08-21T10:43:59;21.30;99.90
7800;DHT22;3944;47.984;7.960;2022-08-21T10:46:41;21.40;99.90
7800;DHT22;3944;47.984;7.960;2022-08-21T10:49:18;21.40;99.90
7800;DHT22;3944;47.984;7.960;2022-08-21T10:51:54;21.20;99.90
7800;DHT22;3944;47.984;7.960;2022-08-21T10:54:30;21.20;99.90
7800;DHT22;3944;47.984;7.960;2022-08-21T10:57:04;21.10;99.90
7800;DHT22;3944;47.984;7.960;2022-08-21T10:59:39;21.20;99.90
7800;DHT22;3944;47.984;7.960;2022-08-21T11:02:14;21.10;99.90
7800;DHT22;3944;47.984;7.960;2022-08-21T11:04:50;21.10;99.90
7800;DHT22;3944;47.984;7.960;2022-08-21T11:07:21;21.00;99.90
7800;DHT22;3944;47.984;7.960;2022-08-21T11:09:49;21.40;99.90
7800;DHT22;3944;47.984;7.960;2022-08-21T11:12:23;21.40;99.90
7800;DHT22;3944;47.984;7.960;2022-08-21T11:14:55;21.30;99.90
7800;DHT22;3944;47.984;7.960;2022-08-21T11:17:30;21.30;99.90
7800;DHT22;3944;47.984;7.960;2022-08-21T11:20:05;21.40;99.90
7800;DHT22;3944;47.984;7.960;2022-08-21T11:22:37;21.40;99.90
7800;DHT22;3944;47.984;7.960;2022-08-21T11:25:11;21.50;99.90
7800;DHT22;3944;47.984;7.960;2022-08-21T11:27:43;21.50;99.90
7800;DHT22;3944;47.984;7.960;2022-08-21T11:30:12;21.50;99.90
7800;DHT22;3944;47.984;7.960;2022-08-21T11:33:05;21.70;99.90
7800;DHT22;3944;47.984;7.960;2022-08-21T11:35:39;21.80;99.90
7800;DHT22;3944;47.984;7.960;2022-08-21T11:38:23;21.90;99.90
7800;DHT22;3944;47.984;7.960;2022-08-21T11:41:08;22.10;99.90
7800;DHT22;3944;47.984;7.960;2022-08-21T11:43:41;21.90;99.90
7800;DHT22;3944;47.984;7.960;2022-08-21T11:46:19;22.00;99.90
7800;DHT22;3944;47.984;7.960;2022-08-21T11:48:57;21.90;99.90
7800;DHT22;3944;47.984;7.960;2022-08-21T11:51:33;21.80;99.90
7800;DHT22;3944;47.984;7.960;2022-08-21T11:54:05;21.90;99.70
7800;DHT22;3944;47.984;7.960;2022-08-21T11:56:37;21.90;99.60
7800;DHT22;3944;47.984;7.960;2022-08-21T11:59:12;22.10;99.90
7800;DHT22;3944;47.984;7.960;2022-08-21T12:01:43;22.30;99.70
7800;DHT22;3944;47.984;7.960;2022-08-21T12:04:26;22.20;99.10
7800;DHT22;3944;47.984;7.960;2022-08-21T12:07:10;22.30;99.90
7800;DHT22;3944;47.984;7.960;2022-08-21T12:09:37;22.40;98.30
7800;DHT22;3944;47.984;7.960;2022-08-21T12:12:10;22.50;97.90
7800;DHT22;3944;47.984;7.960;2022-08-21T12:14:43;22.70;97.80
7800;DHT22;3944;47.984;7.960;2022-08-21T12:17:18;22.70;98.50
7800;DHT22;3944;47.984;7.960;2022-08-21T12:19:57;23.00;97.70
7800;DHT22;3944;47.984;7.960;2022-08-21T12:22:36;22.90;97.60
7800;DHT22;3944;47.984;7.960;2022-08-21T12:25:05;22.90;97.00
7800;DHT22;3944;47.984;7.960;2022-08-21T12:27:45;22.80;97.20
7800;DHT22;3944;47.984;7.960;2022-08-21T12:30:21;22.70;98.10
7800;DHT22;3944;47.984;7.960;2022-08-21T12:32:55;22.90;97.10
7800;DHT22;3944;47.984;7.960;2022-08-21T12:35:25;23.00;95.40
7800;DHT22;3944;47.984;7.960;2022-08-21T12:38:02;22.90;95.80
7800;DHT22;3944;47.984;7.960;2022-08-21T12:40:38;23.00;95.70
7800;DHT22;3944;47.984;7.960;2022-08-21T12:43:13;23.10;96.00
7800;DHT22;3944;47.984;7.960;2022-08-21T12:45:43;22.90;94.50
7800;DHT22;3944;47.984;7.960;2022-08-21T12:48:14;22.90;94.50
7800;DHT22;3944;47.984;7.960;2022-08-21T12:50:46;22.90;94.30
7800;DHT22;3944;47.984;7.960;2022-08-21T12:53:24;23.00;94.80
7800;DHT22;3944;47.984;7.960;2022-08-21T12:55:54;23.10;94.40
7800;DHT22;3944;47.984;7.960;2022-08-21T12:58:25;23.00;94.20
7800;DHT22;3944;47.984;7.960;2022-08-21T13:01:00;23.00;93.80
7800;DHT22;3944;47.984;7.960;2022-08-21T13:03:28;23.00;93.80
7800;DHT22;3944;47.984;7.960;2022-08-21T13:05:57;23.00;93.00
7800;DHT22;3944;47.984;7.960;2022-08-21T13:08:27;22.90;94.00
7800;DHT22;3944;47.984;7.960;2022-08-21T13:10:59;22.90;93.80
7800;DHT22;3944;47.984;7.960;2022-08-21T13:13:28;22.80;93.90
7800;DHT22;3944;47.984;7.960;2022-08-21T13:16:03;22.80;93.90
7800;DHT22;3944;47.984;7.960;2022-08-21T13:18:33;23.10;93.70
7800;DHT22;3944;47.984;7.960;2022-08-21T13:21:06;23.10;94.80
7800;DHT22;3944;47.984;7.960;2022-08-21T13:23:34;23.20;93.00
7800;DHT22;3944;47.984;7.960;2022-08-21T13:26:12;23.40;94.00
7800;DHT22;3944;47.984;7.960;2022-08-21T13:28:39;23.40;94.10
7800;DHT22;3944;47.984;7.960;2022-08-21T13:31:08;23.50;93.00
7800;DHT22;3944;47.984;7.960;2022-08-21T13:33:37;23.40;93.70
7800;DHT22;3944;47.984;7.960;2022-08-21T13:36:10;23.30;93.30
7800;DHT22;3944;47.984;7.960;2022-08-21T13:38:41;23.10;93.10
7800;DHT22;3944;47.984;7.960;2022-08-21T13:41:16;23.10;93.40
7800;DHT22;3944;47.984;7.960;2022-08-21T13:43:49;23.00;92.50
7800;DHT22;3944;47.984;7.960;2022-08-21T13:46:17;23.20;92.20
7800;DHT22;3944;47.984;7.960;2022-08-21T13:48:46;23.20;91.80
7800;DHT22;3944;47.984;7.960;2022-08-21T13:51:13;23.00;91.80
7800;DHT22;3944;47.984;7.960;2022-08-21T13:53:48;23.10;91.40
7800;DHT22;3944;47.984;7.960;2022-08-21T13:56:25;23.20;92.90
7800;DHT22;3944;47.984;7.960;2022-08-21T13:58:55;23.00;93.40
7800;DHT22;3944;47.984;7.960;2022-08-21T14:01:24;23.10;92.50
7800;DHT22;3944;47.984;7.960;2022-08-21T14:03:54;23.30;92.90
7800;DHT22;3944;47.984;7.960;2022-08-21T14:06:25;23.20;93.80
7800;DHT22;3944;47.984;7.960;2022-08-21T14:08:56;23.10;93.30
7800;DHT22;3944;47.984;7.960;2022-08-21T14:11:24;23.00;92.30
7800;DHT22;3944;47.984;7.960;2022-08-21T14:13:58;23.20;92.30
7800;DHT22;3944;47.984;7.960;2022-08-21T14:16:27;23.20;91.10
7800;DHT22;3944;47.984;7.960;2022-08-21T14:19:10;23.20;91.90
7800;DHT22;3944;47.984;7.960;2022-08-21T14:21:39;23.00;91.20
7800;DHT22;3944;47.984;7.960;2022-08-21T14:24:10;23.00;91.30
7800;DHT22;3944;47.984;7.960;2022-08-21T14:26:44;23.10;92.40
7800;DHT22;3944;47.984;7.960;2022-08-21T14:29:14;23.00;92.10
7800;DHT22;3944;47.984;7.960;2022-08-21T14:31:42;23.00;91.90
7800;DHT22;3944;47.984;7.960;2022-08-21T14:34:11;23.00;92.30
7800;DHT22;3944;47.984;7.960;2022-08-21T14:36:40;22.80;93.90
7800;DHT22;3944;47.984;7.960;2022-08-21T14:39:09;22.70;93.60
7800;DHT22;3944;47.984;7.960;2022-08-21T14:41:37;22.70;92.90
7800;DHT22;3944;47.984;7.960;2022-08-21T14:44:04;22.90;92.50
7800;DHT22;3944;47.984;7.960;2022-08-21T14:46:32;23.00;92.00
7800;DHT22;3944;47.984;7.960;2022-08-21T14:49:00;23.20;91.00
7800;DHT22;3944;47.984;7.960;2022-08-21T14:51:27;23.10;92.00
7800;DHT22;3944;47.984;7.960;2022-08-21T14:53:54;23.10;90.70
7800;DHT22;3944;47.984;7.960;2022-08-21T14:56:23;23.10;91.00
7800;DHT22;3944;47.984;7.960;2022-08-21T14:58:52;23.00;90.50
7800;DHT22;3944;47.984;7.960;2022-08-21T15:01:22;23.10;88.60
7800;DHT22;3944;47.984;7.960;2022-08-21T15:03:49;23.30;88.20
7800;DHT22;3944;47.984;7.960;2022-08-21T15:06:17;23.10;90.60
7800;DHT22;3944;47.984;7.960;2022-08-21T15:08:47;23.10;91.10
7800;DHT22;3944;47.984;7.960;2022-08-21T15:11:18;23.00;90.20
7800;DHT22;3944;47.984;7.960;2022-08-21T15:13:55;23.10;90.60
7800;DHT22;3944;47.984;7.960;2022-08-21T15:16:22;22.90;90.40
7800;DHT22;3944;47.984;7.960;2022-08-21T15:18:49;22.80;90.80
7800;DHT22;3944;47.984;7.960;2022-08-21T15:21:16;22.90;91.20
7800;DHT22;3944;47.984;7.960;2022-08-21T15:23:43;23.20;90.50
7800;DHT22;3944;47.984;7.960;2022-08-21T15:26:10;23.10;91.00
7800;DHT22;3944;47.984;7.960;2022-08-21T15:28:37;23.00;90.90
7800;DHT22;3944;47.984;7.960;2022-08-21T15:31:05;23.00;91.10
7800;DHT22;3944;47.984;7.960;2022-08-21T15:33:33;23.10;90.20
7800;DHT22;3944;47.984;7.960;2022-08-21T15:36:00;23.10;91.10
7800;DHT22;3944;47.984;7.960;2022-08-21T15:38:26;23.00;91.40
7800;DHT22;3944;47.984;7.960;2022-08-21T15:40:53;22.90;91.00
7800;DHT22;3944;47.984;7.960;2022-08-21T15:43:23;22.80;90.80
7800;DHT22;3944;47.984;7.960;2022-08-21T15:45:51;22.70;91.80
7800;DHT22;3944;47.984;7.960;2022-08-21T15:48:20;22.60;92.00
7800;DHT22;3944;47.984;7.960;2022-08-21T15:50:47;22.60;91.80
7800;DHT22;3944;47.984;7.960;2022-08-21T15:53:14;22.70;91.10
7800;DHT22;3944;47.984;7.960;2022-08-21T15:55:41;22.60;92.20
7800;DHT22;3944;47.984;7.960;2022-08-21T15:58:12;22.70;92.00
7800;DHT22;3944;47.984;7.960;2022-08-21T16:00:40;22.80;90.70
7800;DHT22;3944;47.984;7.960;2022-08-21T16:03:11;22.80;90.60
7800;DHT22;3944;47.984;7.960;2022-08-21T16:05:42;22.70;91.80
7800;DHT22;3944;47.984;7.960;2022-08-21T16:08:09;22.60;90.40
7800;DHT22;3944;47.984;7.960;2022-08-21T16:10:37;22.70;91.20
7800;DHT22;3944;47.984;7.960;2022-08-21T16:13:07;22.50;93.60
7800;DHT22;3944;47.984;7.960;2022-08-21T16:15:39;22.40;91.10
7800;DHT22;3944;47.984;7.960;2022-08-21T16:18:06;22.30;91.80
7800;DHT22;3944;47.984;7.960;2022-08-21T16:20:33;22.40;91.70